VIV102T MMTJ-MMCS
Flight info
| Callsign | VIV102T |
|---|---|
| Flight time | 1h 24m |
| Altitude | 37000 |
| Route | TEVIR2B TEVIR UT18 URSEV DCT ELURO DCT JALIL J26 CJS |
| Aircraft | A20N/M-SDE2E3FGHIRWXY/LB1 |
Departure
| Time | 2026-04-18 04:33 |
|---|---|
| Airport | General Abelardo L. Rodriguez International Airport (MMTJ) |
Arrival
| Time | 2026-04-18 05:58 |
|---|---|
| Airport | Abraham González International Airport (MMCS) |
| Time | Latitude | Longitude | Altitude | Speed | Heading |
|---|---|---|---|---|---|
| 2026-04-18 04:13 | 32.54482 | -116.97416 | 473 ft | 0 kts | 277° |
| 2026-04-18 04:24 | 32.54479 | -116.97388 | 475 ft | 4 kts | 272° |
| 2026-04-18 04:25 | 32.54480 | -116.97356 | 473 ft | 4 kts | 257° |
| 2026-04-18 04:25 | 32.54489 | -116.97331 | 472 ft | 4 kts | 193° |
| 2026-04-18 04:25 | 32.54499 | -116.97331 | 470 ft | 1 kts | 160° |
| 2026-04-18 04:25 | 32.54500 | -116.97332 | 470 ft | 0 kts | 160° |
| 2026-04-18 04:27 | 32.54498 | -116.97331 | 470 ft | 1 kts | 160° |
| 2026-04-18 04:27 | 32.54479 | -116.97323 | 471 ft | 4 kts | 160° |
| 2026-04-18 04:28 | 32.54442 | -116.97323 | 475 ft | 6 kts | 194° |
| 2026-04-18 04:28 | 32.54397 | -116.97350 | 475 ft | 8 kts | 221° |
| 2026-04-18 04:28 | 32.54362 | -116.97407 | 474 ft | 9 kts | 217° |
| 2026-04-18 04:28 | 32.54324 | -116.97369 | 475 ft | 9 kts | 108° |
| 2026-04-18 04:29 | 32.54309 | -116.97274 | 470 ft | 14 kts | 98° |
| 2026-04-18 04:29 | 32.54292 | -116.97143 | 471 ft | 18 kts | 99° |
| 2026-04-18 04:29 | 32.54272 | -116.96997 | 471 ft | 18 kts | 98° |
| 2026-04-18 04:29 | 32.54252 | -116.96842 | 470 ft | 19 kts | 99° |
| 2026-04-18 04:30 | 32.54231 | -116.96681 | 469 ft | 21 kts | 98° |
| 2026-04-18 04:30 | 32.54210 | -116.96526 | 466 ft | 19 kts | 99° |
| 2026-04-18 04:30 | 32.54189 | -116.96373 | 468 ft | 17 kts | 98° |
| 2026-04-18 04:30 | 32.54172 | -116.96234 | 469 ft | 18 kts | 99° |
| 2026-04-18 04:31 | 32.54152 | -116.96092 | 466 ft | 16 kts | 99° |
| 2026-04-18 04:31 | 32.54133 | -116.95942 | 465 ft | 20 kts | 98° |
| 2026-04-18 04:31 | 32.54110 | -116.95770 | 464 ft | 21 kts | 98° |
| 2026-04-18 04:31 | 32.54090 | -116.95609 | 461 ft | 19 kts | 98° |
| 2026-04-18 04:32 | 32.54074 | -116.95490 | 458 ft | 14 kts | 99° |
| 2026-04-18 04:32 | 32.54014 | -116.95429 | 458 ft | 8 kts | 182° |
| 2026-04-18 04:32 | 32.53950 | -116.95439 | 458 ft | 10 kts | 193° |
| 2026-04-18 04:32 | 32.53905 | -116.95470 | 458 ft | 7 kts | 251° |
| 2026-04-18 04:33 | 32.53905 | -116.95488 | 458 ft | 8 kts | 272° |
| 2026-04-18 04:33 | 32.53960 | -116.95903 | 468 ft | 92 kts | 278° |
| 2026-04-18 04:33 | 32.54096 | -116.96938 | 521 ft | 151 kts | 278° |
| 2026-04-18 04:33 | 32.54251 | -116.98157 | 1309 ft | 150 kts | 276° |
| 2026-04-18 04:34 | 32.54148 | -116.99476 | 1889 ft | 175 kts | 250° |
| 2026-04-18 04:34 | 32.53519 | -117.00815 | 2436 ft | 196 kts | 242° |
| 2026-04-18 04:34 | 32.52933 | -117.02355 | 2985 ft | 211 kts | 252° |
| 2026-04-18 04:34 | 32.52516 | -117.04039 | 3738 ft | 214 kts | 257° |
| 2026-04-18 04:35 | 32.52190 | -117.05747 | 4496 ft | 217 kts | 258° |
| 2026-04-18 04:35 | 32.51878 | -117.07512 | 5250 ft | 220 kts | 255° |
| 2026-04-18 04:35 | 32.51123 | -117.09071 | 6004 ft | 221 kts | 222° |
| 2026-04-18 04:35 | 32.49765 | -117.09890 | 6753 ft | 222 kts | 189° |
| 2026-04-18 04:36 | 32.48231 | -117.09701 | 7393 ft | 227 kts | 156° |
| 2026-04-18 04:36 | 32.46984 | -117.08554 | 7855 ft | 231 kts | 125° |
| 2026-04-18 04:36 | 32.46217 | -117.06839 | 7998 ft | 247 kts | 111° |
| 2026-04-18 04:36 | 32.45565 | -117.04849 | 8100 ft | 268 kts | 110° |
| 2026-04-18 04:37 | 32.44865 | -117.02771 | 8721 ft | 277 kts | 111° |
| 2026-04-18 04:37 | 32.44074 | -117.00628 | 9179 ft | 294 kts | 114° |
| 2026-04-18 04:37 | 32.43192 | -116.98406 | 10010 ft | 299 kts | 114° |
| 2026-04-18 04:37 | 32.42264 | -116.96138 | 10493 ft | 316 kts | 115° |
| 2026-04-18 04:38 | 32.41258 | -116.93708 | 10747 ft | 340 kts | 115° |
| 2026-04-18 04:38 | 32.40191 | -116.91136 | 11201 ft | 353 kts | 115° |
| 2026-04-18 04:38 | 32.39099 | -116.88508 | 11973 ft | 357 kts | 115° |
| 2026-04-18 04:38 | 32.38001 | -116.85862 | 12738 ft | 361 kts | 115° |
| 2026-04-18 04:39 | 32.36900 | -116.83212 | 13478 ft | 365 kts | 115° |
| 2026-04-18 04:39 | 32.35772 | -116.80495 | 14178 ft | 370 kts | 115° |
| 2026-04-18 04:39 | 32.34631 | -116.77749 | 14893 ft | 373 kts | 115° |
| 2026-04-18 04:39 | 32.33328 | -116.75072 | 15557 ft | 378 kts | 123° |
| 2026-04-18 04:40 | 32.31828 | -116.72505 | 16224 ft | 381 kts | 124° |
| 2026-04-18 04:40 | 32.30316 | -116.69903 | 16916 ft | 385 kts | 124° |
| 2026-04-18 04:40 | 32.28798 | -116.67281 | 17581 ft | 389 kts | 124° |
| 2026-04-18 04:40 | 32.27263 | -116.64627 | 18219 ft | 393 kts | 124° |
| 2026-04-18 04:41 | 32.25712 | -116.61947 | 18813 ft | 396 kts | 124° |
| 2026-04-18 04:41 | 32.24167 | -116.59280 | 19380 ft | 399 kts | 124° |
| 2026-04-18 04:41 | 32.22571 | -116.56527 | 19960 ft | 403 kts | 124° |
| 2026-04-18 04:41 | 32.21001 | -116.53822 | 20529 ft | 406 kts | 124° |
| 2026-04-18 04:42 | 32.19519 | -116.50966 | 21080 ft | 409 kts | 117° |
| 2026-04-18 04:42 | 32.18291 | -116.47921 | 21626 ft | 413 kts | 115° |
| 2026-04-18 04:42 | 32.17061 | -116.44833 | 22168 ft | 417 kts | 115° |
| 2026-04-18 04:42 | 32.15815 | -116.41727 | 22714 ft | 420 kts | 115° |
| 2026-04-18 04:43 | 32.14554 | -116.38595 | 23254 ft | 424 kts | 115° |
| 2026-04-18 04:43 | 32.13281 | -116.35439 | 23760 ft | 428 kts | 115° |
| 2026-04-18 04:43 | 32.11996 | -116.32254 | 24212 ft | 431 kts | 115° |
| 2026-04-18 04:43 | 32.10704 | -116.29055 | 24652 ft | 434 kts | 116° |
| 2026-04-18 04:44 | 32.09399 | -116.25826 | 25062 ft | 437 kts | 116° |
| 2026-04-18 04:44 | 32.08105 | -116.22626 | 25510 ft | 440 kts | 116° |
| 2026-04-18 04:44 | 32.06764 | -116.19315 | 25931 ft | 443 kts | 116° |
| 2026-04-18 04:44 | 32.05431 | -116.16025 | 26340 ft | 446 kts | 116° |
| 2026-04-18 04:45 | 32.04109 | -116.12766 | 26729 ft | 449 kts | 116° |
| 2026-04-18 04:45 | 32.02755 | -116.09430 | 27130 ft | 451 kts | 116° |
| 2026-04-18 04:45 | 32.01393 | -116.06081 | 27516 ft | 454 kts | 116° |
| 2026-04-18 04:45 | 32.00019 | -116.02702 | 27893 ft | 457 kts | 116° |
| 2026-04-18 04:46 | 31.98642 | -115.99321 | 28248 ft | 460 kts | 116° |
| 2026-04-18 04:46 | 31.97260 | -115.95930 | 28599 ft | 462 kts | 116° |
| 2026-04-18 04:46 | 31.95856 | -115.92488 | 28950 ft | 465 kts | 116° |
| 2026-04-18 04:46 | 31.94446 | -115.89034 | 29277 ft | 467 kts | 116° |
| 2026-04-18 04:47 | 31.93033 | -115.85576 | 29587 ft | 470 kts | 117° |
| 2026-04-18 04:47 | 31.91611 | -115.82101 | 29930 ft | 472 kts | 117° |
| 2026-04-18 04:47 | 31.90085 | -115.78732 | 30220 ft | 473 kts | 123° |
| 2026-04-18 04:47 | 31.88278 | -115.75483 | 30503 ft | 475 kts | 125° |
| 2026-04-18 04:48 | 31.86451 | -115.72227 | 30761 ft | 478 kts | 124° |
| 2026-04-18 04:48 | 31.84620 | -115.68951 | 31039 ft | 480 kts | 124° |
| 2026-04-18 04:48 | 31.82788 | -115.65671 | 31361 ft | 481 kts | 124° |
| 2026-04-18 04:48 | 31.80944 | -115.62374 | 31704 ft | 481 kts | 125° |
| 2026-04-18 04:49 | 31.79110 | -115.59097 | 32069 ft | 480 kts | 125° |
| 2026-04-18 04:49 | 31.77271 | -115.55815 | 32415 ft | 480 kts | 125° |
| 2026-04-18 04:49 | 31.75436 | -115.52543 | 32769 ft | 479 kts | 125° |
| 2026-04-18 04:49 | 31.73601 | -115.49276 | 33099 ft | 479 kts | 125° |
| 2026-04-18 04:50 | 31.71763 | -115.46006 | 33445 ft | 479 kts | 125° |
| 2026-04-18 04:50 | 31.69948 | -115.42779 | 33791 ft | 478 kts | 125° |
| 2026-04-18 04:50 | 31.68114 | -115.39521 | 34093 ft | 478 kts | 125° |
| 2026-04-18 04:50 | 31.66293 | -115.36255 | 34333 ft | 478 kts | 122° |
| 2026-04-18 04:51 | 31.64733 | -115.32788 | 34574 ft | 479 kts | 115° |
| 2026-04-18 04:51 | 31.63565 | -115.29128 | 34814 ft | 480 kts | 107° |
| 2026-04-18 04:51 | 31.62781 | -115.25308 | 35027 ft | 481 kts | 101° |
| 2026-04-18 04:51 | 31.62132 | -115.21462 | 35250 ft | 481 kts | 102° |
| 2026-04-18 04:52 | 31.61467 | -115.17615 | 35479 ft | 481 kts | 102° |
| 2026-04-18 04:52 | 31.60804 | -115.13805 | 35673 ft | 481 kts | 102° |
| 2026-04-18 04:52 | 31.60131 | -115.09950 | 35898 ft | 481 kts | 102° |
| 2026-04-18 04:52 | 31.59460 | -115.06109 | 36104 ft | 481 kts | 102° |
| 2026-04-18 04:53 | 31.58788 | -115.02269 | 36297 ft | 481 kts | 102° |
| 2026-04-18 04:53 | 31.58112 | -114.98416 | 36475 ft | 481 kts | 103° |
| 2026-04-18 04:53 | 31.57434 | -114.94560 | 36655 ft | 482 kts | 103° |
| 2026-04-18 04:53 | 31.56755 | -114.90703 | 36862 ft | 481 kts | 103° |
| 2026-04-18 04:54 | 31.56077 | -114.86862 | 36976 ft | 482 kts | 103° |
| 2026-04-18 04:54 | 31.54726 | -114.79226 | 36973 ft | 480 kts | 103° |
| 2026-04-18 04:55 | 31.53365 | -114.71567 | 36970 ft | 480 kts | 103° |
| 2026-04-18 04:55 | 31.51998 | -114.63899 | 36960 ft | 480 kts | 103° |
| 2026-04-18 04:56 | 31.49940 | -114.52403 | 36964 ft | 480 kts | 103° |
| 2026-04-18 04:56 | 31.48568 | -114.44779 | 36957 ft | 480 kts | 103° |
| 2026-04-18 04:57 | 31.47183 | -114.37106 | 36959 ft | 481 kts | 103° |
| 2026-04-18 04:57 | 31.45795 | -114.29441 | 36955 ft | 481 kts | 103° |
| 2026-04-18 04:58 | 31.44399 | -114.21766 | 36950 ft | 481 kts | 103° |
| 2026-04-18 04:58 | 31.43008 | -114.14140 | 36954 ft | 482 kts | 103° |
| 2026-04-18 04:59 | 31.41602 | -114.06463 | 36948 ft | 482 kts | 103° |
| 2026-04-18 04:59 | 31.40191 | -113.98784 | 36943 ft | 482 kts | 103° |
| 2026-04-18 05:00 | 31.39013 | -113.92395 | 36948 ft | 482 kts | 103° |
| 2026-04-18 05:00 | 31.37593 | -113.84721 | 36947 ft | 483 kts | 104° |
| 2026-04-18 05:01 | 31.36167 | -113.77037 | 36941 ft | 482 kts | 104° |
| 2026-04-18 05:01 | 31.34737 | -113.69357 | 36940 ft | 483 kts | 104° |
| 2026-04-18 05:02 | 31.33310 | -113.61725 | 36941 ft | 483 kts | 104° |
| 2026-04-18 05:02 | 31.31872 | -113.54059 | 36943 ft | 483 kts | 104° |
| 2026-04-18 05:03 | 31.30426 | -113.46379 | 36943 ft | 483 kts | 104° |
| 2026-04-18 05:03 | 31.28978 | -113.38708 | 36943 ft | 483 kts | 104° |
| 2026-04-18 05:04 | 31.27520 | -113.31019 | 36944 ft | 487 kts | 104° |
| 2026-04-18 05:04 | 31.26044 | -113.23264 | 36940 ft | 495 kts | 104° |
| 2026-04-18 05:05 | 31.24536 | -113.15361 | 36943 ft | 500 kts | 104° |
| 2026-04-18 05:05 | 31.23022 | -113.07447 | 36946 ft | 498 kts | 104° |
| 2026-04-18 05:06 | 31.21505 | -112.99554 | 36947 ft | 498 kts | 104° |
| 2026-04-18 05:06 | 31.19977 | -112.91637 | 36945 ft | 498 kts | 104° |
| 2026-04-18 05:07 | 31.18448 | -112.83737 | 36949 ft | 498 kts | 104° |
| 2026-04-18 05:07 | 31.16917 | -112.75850 | 36947 ft | 498 kts | 105° |
| 2026-04-18 05:08 | 31.15390 | -112.68016 | 36943 ft | 498 kts | 105° |
| 2026-04-18 05:08 | 31.13849 | -112.60137 | 36944 ft | 498 kts | 105° |
| 2026-04-18 05:09 | 31.12301 | -112.52248 | 36943 ft | 498 kts | 105° |
| 2026-04-18 05:09 | 31.10752 | -112.44378 | 36940 ft | 498 kts | 105° |
| 2026-04-18 05:10 | 31.09195 | -112.36497 | 36937 ft | 498 kts | 105° |
| 2026-04-18 05:10 | 31.07640 | -112.28657 | 36936 ft | 498 kts | 105° |
| 2026-04-18 05:11 | 31.06072 | -112.20777 | 36929 ft | 498 kts | 105° |
| 2026-04-18 05:11 | 31.04501 | -112.12904 | 36929 ft | 499 kts | 105° |
| 2026-04-18 05:12 | 31.02923 | -112.05021 | 36921 ft | 499 kts | 106° |
| 2026-04-18 05:12 | 31.01346 | -111.97178 | 36923 ft | 499 kts | 106° |
| 2026-04-18 05:13 | 30.99760 | -111.89310 | 36923 ft | 499 kts | 106° |
| 2026-04-18 05:13 | 30.98167 | -111.81435 | 36917 ft | 499 kts | 106° |
| 2026-04-18 05:14 | 30.96565 | -111.73539 | 36916 ft | 501 kts | 106° |
| 2026-04-18 05:14 | 30.94956 | -111.65639 | 36913 ft | 500 kts | 106° |
| 2026-04-18 05:15 | 30.93352 | -111.57793 | 36916 ft | 501 kts | 106° |
| 2026-04-18 05:15 | 30.91734 | -111.49896 | 36916 ft | 501 kts | 107° |
| 2026-04-18 05:16 | 30.90112 | -111.42011 | 36911 ft | 501 kts | 107° |
| 2026-04-18 05:16 | 30.88484 | -111.34123 | 36911 ft | 501 kts | 107° |
| 2026-04-18 05:17 | 30.86860 | -111.26279 | 36911 ft | 500 kts | 107° |
| 2026-04-18 05:17 | 30.85223 | -111.18396 | 36911 ft | 500 kts | 107° |
| 2026-04-18 05:18 | 30.83585 | -111.10520 | 36887 ft | 502 kts | 107° |
| 2026-04-18 05:18 | 30.81934 | -111.02603 | 36913 ft | 504 kts | 107° |
| 2026-04-18 05:19 | 30.80511 | -110.94604 | 36915 ft | 506 kts | 100° |
| 2026-04-18 05:19 | 30.79705 | -110.86512 | 36917 ft | 507 kts | 99° |
| 2026-04-18 05:20 | 30.78890 | -110.78343 | 36921 ft | 508 kts | 100° |
| 2026-04-18 05:20 | 30.78053 | -110.70173 | 36920 ft | 508 kts | 100° |
| 2026-04-18 05:21 | 30.77207 | -110.62010 | 36920 ft | 508 kts | 100° |
| 2026-04-18 05:21 | 30.76356 | -110.53852 | 36931 ft | 508 kts | 100° |
| 2026-04-18 05:22 | 30.75506 | -110.45745 | 36935 ft | 509 kts | 101° |
| 2026-04-18 05:22 | 30.74638 | -110.37522 | 36936 ft | 512 kts | 101° |
| 2026-04-18 05:23 | 30.73766 | -110.29314 | 36941 ft | 511 kts | 101° |
| 2026-04-18 05:23 | 30.72889 | -110.21114 | 36941 ft | 511 kts | 101° |
| 2026-04-18 05:24 | 30.72006 | -110.12875 | 36941 ft | 516 kts | 102° |
| 2026-04-18 05:24 | 30.71108 | -110.04561 | 36935 ft | 519 kts | 102° |
| 2026-04-18 05:25 | 30.70209 | -109.96294 | 36939 ft | 518 kts | 102° |
| 2026-04-18 05:25 | 30.69299 | -109.87985 | 36938 ft | 518 kts | 102° |
| 2026-04-18 05:26 | 30.68385 | -109.79685 | 36923 ft | 517 kts | 102° |
| 2026-04-18 05:26 | 30.67460 | -109.71342 | 36939 ft | 522 kts | 103° |
| 2026-04-18 05:27 | 30.66533 | -109.63034 | 36932 ft | 521 kts | 103° |
| 2026-04-18 05:27 | 30.65595 | -109.54668 | 36939 ft | 521 kts | 103° |
| 2026-04-18 05:28 | 30.64653 | -109.46314 | 36937 ft | 521 kts | 103° |
| 2026-04-18 05:28 | 30.63704 | -109.37935 | 36933 ft | 526 kts | 103° |
| 2026-04-18 05:29 | 30.62743 | -109.29524 | 36934 ft | 525 kts | 103° |
| 2026-04-18 05:29 | 30.61779 | -109.21124 | 36937 ft | 524 kts | 103° |
| 2026-04-18 05:30 | 30.60814 | -109.12771 | 36949 ft | 527 kts | 104° |
| 2026-04-18 05:30 | 30.59843 | -109.04311 | 36959 ft | 529 kts | 104° |
| 2026-04-18 05:31 | 30.58851 | -108.95851 | 36957 ft | 528 kts | 104° |
| 2026-04-18 05:31 | 30.57850 | -108.87381 | 36958 ft | 530 kts | 104° |
| 2026-04-18 05:32 | 30.56849 | -108.78915 | 36979 ft | 529 kts | 104° |
| 2026-04-18 05:32 | 30.55844 | -108.70428 | 36982 ft | 532 kts | 105° |
| 2026-04-18 05:33 | 30.54830 | -108.61948 | 36984 ft | 533 kts | 105° |
| 2026-04-18 05:33 | 30.54137 | -108.53391 | 36983 ft | 542 kts | 92° |
| 2026-04-18 05:34 | 30.54623 | -108.49008 | 36988 ft | 553 kts | 81° |
| 2026-04-18 05:34 | 30.55775 | -108.44741 | 36991 ft | 559 kts | 69° |
| 2026-04-18 05:34 | 30.57567 | -108.40721 | 36974 ft | 563 kts | 57° |
| 2026-04-18 05:34 | 30.59877 | -108.37043 | 36983 ft | 565 kts | 50° |
| 2026-04-18 05:35 | 30.64691 | -108.29800 | 36967 ft | 567 kts | 53° |
| 2026-04-18 05:35 | 30.69157 | -108.22307 | 36964 ft | 556 kts | 56° |
| 2026-04-18 05:36 | 30.71271 | -108.18603 | 36963 ft | 545 kts | 56° |
| 2026-04-18 05:36 | 30.73340 | -108.14944 | 36961 ft | 547 kts | 57° |
| 2026-04-18 05:36 | 30.77541 | -108.07498 | 36960 ft | 550 kts | 57° |
| 2026-04-18 05:37 | 30.81715 | -108.00095 | 36946 ft | 541 kts | 57° |
| 2026-04-18 05:37 | 30.85850 | -107.92753 | 36958 ft | 544 kts | 57° |
| 2026-04-18 05:38 | 30.89962 | -107.85441 | 36734 ft | 541 kts | 57° |
| 2026-04-18 05:38 | 30.92027 | -107.81761 | 36183 ft | 542 kts | 57° |
| 2026-04-18 05:38 | 30.94097 | -107.78071 | 35345 ft | 547 kts | 57° |
| 2026-04-18 05:39 | 30.96190 | -107.74339 | 34412 ft | 553 kts | 58° |
| 2026-04-18 05:39 | 30.98312 | -107.70551 | 33214 ft | 565 kts | 58° |
| 2026-04-18 05:39 | 31.00458 | -107.66711 | 32431 ft | 564 kts | 58° |
| 2026-04-18 05:39 | 31.02589 | -107.62894 | 31748 ft | 559 kts | 58° |
| 2026-04-18 05:40 | 31.04700 | -107.59114 | 30885 ft | 552 kts | 58° |
| 2026-04-18 05:40 | 31.06779 | -107.55387 | 30032 ft | 542 kts | 57° |
| 2026-04-18 05:40 | 31.08819 | -107.51725 | 28915 ft | 536 kts | 57° |
| 2026-04-18 05:40 | 31.10811 | -107.48144 | 27965 ft | 527 kts | 57° |
| 2026-04-18 05:41 | 31.12793 | -107.44581 | 27077 ft | 517 kts | 57° |
| 2026-04-18 05:41 | 31.14731 | -107.41092 | 26227 ft | 507 kts | 57° |
| 2026-04-18 05:41 | 31.16625 | -107.37677 | 25574 ft | 493 kts | 57° |
| 2026-04-18 05:41 | 31.18480 | -107.34328 | 24587 ft | 489 kts | 57° |
| 2026-04-18 05:42 | 31.20314 | -107.31017 | 23749 ft | 481 kts | 57° |
| 2026-04-18 05:42 | 31.22098 | -107.27793 | 22891 ft | 473 kts | 57° |
| 2026-04-18 05:42 | 31.23869 | -107.24593 | 21946 ft | 465 kts | 57° |
| 2026-04-18 05:42 | 31.25613 | -107.21440 | 21043 ft | 458 kts | 57° |
| 2026-04-18 05:43 | 31.27329 | -107.18334 | 20161 ft | 451 kts | 57° |
| 2026-04-18 05:43 | 31.29016 | -107.15280 | 19311 ft | 444 kts | 58° |
| 2026-04-18 05:43 | 31.30678 | -107.12266 | 18479 ft | 437 kts | 58° |
| 2026-04-18 05:43 | 31.32314 | -107.09298 | 17595 ft | 430 kts | 58° |
| 2026-04-18 05:44 | 31.33917 | -107.06384 | 16747 ft | 422 kts | 58° |
| 2026-04-18 05:44 | 31.35493 | -107.03519 | 15851 ft | 416 kts | 58° |
| 2026-04-18 05:44 | 31.37051 | -107.00684 | 14960 ft | 411 kts | 58° |
| 2026-04-18 05:44 | 31.38584 | -106.97893 | 14183 ft | 404 kts | 58° |
| 2026-04-18 05:45 | 31.40091 | -106.95148 | 13424 ft | 399 kts | 58° |
| 2026-04-18 05:45 | 31.41566 | -106.92457 | 12830 ft | 395 kts | 58° |
| 2026-04-18 05:45 | 31.43044 | -106.89757 | 12224 ft | 392 kts | 57° |
| 2026-04-18 05:45 | 31.44509 | -106.87080 | 11632 ft | 388 kts | 57° |
| 2026-04-18 05:46 | 31.45964 | -106.84422 | 11048 ft | 386 kts | 57° |
| 2026-04-18 05:46 | 31.47405 | -106.81785 | 10516 ft | 382 kts | 56° |
| 2026-04-18 05:46 | 31.48816 | -106.79202 | 10319 ft | 367 kts | 56° |
| 2026-04-18 05:46 | 31.50163 | -106.76733 | 10173 ft | 353 kts | 56° |
| 2026-04-18 05:47 | 31.51462 | -106.74355 | 10023 ft | 340 kts | 56° |
| 2026-04-18 05:47 | 31.52697 | -106.72089 | 9902 ft | 327 kts | 56° |
| 2026-04-18 05:47 | 31.53903 | -106.69877 | 9672 ft | 319 kts | 56° |
| 2026-04-18 05:47 | 31.55086 | -106.67705 | 9364 ft | 313 kts | 56° |
| 2026-04-18 05:48 | 31.56255 | -106.65563 | 9016 ft | 309 kts | 56° |
| 2026-04-18 05:48 | 31.57395 | -106.63473 | 8864 ft | 299 kts | 55° |
| 2026-04-18 05:48 | 31.58527 | -106.61393 | 8745 ft | 305 kts | 57° |
| 2026-04-18 05:48 | 31.59123 | -106.59905 | 8660 ft | 305 kts | 70° |
| 2026-04-18 05:49 | 31.59745 | -106.57558 | 8585 ft | 296 kts | 72° |
| 2026-04-18 05:49 | 31.60329 | -106.55285 | 8485 ft | 285 kts | 72° |
| 2026-04-18 05:49 | 31.60889 | -106.53106 | 8386 ft | 272 kts | 71° |
| 2026-04-18 05:49 | 31.61424 | -106.51038 | 8254 ft | 258 kts | 71° |
| 2026-04-18 05:50 | 31.61934 | -106.49076 | 8146 ft | 245 kts | 71° |
| 2026-04-18 05:50 | 31.62428 | -106.47186 | 7940 ft | 238 kts | 70° |
| 2026-04-18 05:50 | 31.62915 | -106.45332 | 7839 ft | 242 kts | 70° |
| 2026-04-18 05:50 | 31.63411 | -106.43445 | 7813 ft | 242 kts | 70° |
| 2026-04-18 05:51 | 31.64001 | -106.41605 | 7811 ft | 241 kts | 63° |
| 2026-04-18 05:51 | 31.64726 | -106.39841 | 7935 ft | 240 kts | 60° |
| 2026-04-18 05:51 | 31.65479 | -106.38090 | 7939 ft | 240 kts | 60° |
| 2026-04-18 05:51 | 31.66227 | -106.36345 | 7946 ft | 240 kts | 61° |
| 2026-04-18 05:52 | 31.66971 | -106.34583 | 7947 ft | 239 kts | 61° |
| 2026-04-18 05:52 | 31.67677 | -106.32885 | 7972 ft | 221 kts | 61° |
| 2026-04-18 05:52 | 31.68328 | -106.31310 | 7953 ft | 213 kts | 61° |
| 2026-04-18 05:52 | 31.68985 | -106.29726 | 7949 ft | 216 kts | 60° |
| 2026-04-18 05:53 | 31.69642 | -106.28148 | 7943 ft | 211 kts | 59° |
| 2026-04-18 05:53 | 31.70566 | -106.26955 | 7851 ft | 188 kts | 24° |
| 2026-04-18 05:53 | 31.71766 | -106.26711 | 7609 ft | 171 kts | 344° |
| 2026-04-18 05:53 | 31.72731 | -106.27435 | 7251 ft | 168 kts | 303° |
| 2026-04-18 05:54 | 31.73044 | -106.28752 | 6926 ft | 171 kts | 274° |
| 2026-04-18 05:54 | 31.72997 | -106.30153 | 6606 ft | 172 kts | 268° |
| 2026-04-18 05:54 | 31.72878 | -106.31523 | 6335 ft | 167 kts | 267° |
| 2026-04-18 05:54 | 31.72662 | -106.32809 | 6063 ft | 157 kts | 257° |
| 2026-04-18 05:55 | 31.72216 | -106.33971 | 5697 ft | 156 kts | 243° |
| 2026-04-18 05:55 | 31.71564 | -106.34976 | 5426 ft | 150 kts | 232° |
| 2026-04-18 05:55 | 31.70847 | -106.35791 | 5355 ft | 134 kts | 226° |
| 2026-04-18 05:55 | 31.70132 | -106.36494 | 5537 ft | 125 kts | 224° |
| 2026-04-18 05:56 | 31.69451 | -106.37114 | 5306 ft | 136 kts | 225° |
| 2026-04-18 05:56 | 31.68713 | -106.37864 | 5219 ft | 143 kts | 227° |
| 2026-04-18 05:56 | 31.67951 | -106.38694 | 4997 ft | 153 kts | 229° |
| 2026-04-18 05:56 | 31.67152 | -106.39558 | 4649 ft | 158 kts | 224° |
| 2026-04-18 05:57 | 31.65485 | -106.41147 | 4168 ft | 149 kts | 220° |
| 2026-04-18 05:57 | 31.64697 | -106.41884 | 3973 ft | 141 kts | 218° |
| 2026-04-18 05:57 | 31.64017 | -106.42517 | 3916 ft | 80 kts | 218° |
| 2026-04-18 05:58 | 31.63701 | -106.42812 | 3915 ft | 47 kts | 218° |
| 2026-04-18 05:58 | 31.63607 | -106.42970 | 3917 ft | 13 kts | 241° |
| 2026-04-18 05:58 | 31.63571 | -106.43045 | 3916 ft | 12 kts | 243° |
| 2026-04-18 05:58 | 31.63548 | -106.43103 | 3916 ft | 1 kts | 246° |
| 2026-04-18 05:59 | 31.63541 | -106.43122 | 3916 ft | 5 kts | 248° |
| 2026-04-18 05:59 | 31.63520 | -106.43185 | 3916 ft | 11 kts | 248° |
| 2026-04-18 05:59 | 31.63490 | -106.43281 | 3916 ft | 13 kts | 267° |
| 2026-04-18 05:59 | 31.63530 | -106.43373 | 3916 ft | 12 kts | 317° |
| 2026-04-18 06:00 | 31.63592 | -106.43357 | 3916 ft | 9 kts | 28° |
| 2026-04-18 06:00 | 31.63610 | -106.43361 | 3916 ft | 2 kts | 330° |
| 2026-04-18 06:00 | 31.63627 | -106.43381 | 3916 ft | 3 kts | 314° |
| 2026-04-18 06:00 | 31.63634 | -106.43391 | 3916 ft | 0 kts | 308° |